sensor_id;sensor_type;location;lat;lon;timestamp;temperature;humidity
35563;DHT22;21665;40.108;18.302;2023-09-30T00:01:22;19.20;99.90
35563;DHT22;21665;40.108;18.302;2023-09-30T00:03:48;19.10;99.90
35563;DHT22;21665;40.108;18.302;2023-09-30T00:06:15;19.10;99.90
35563;DHT22;21665;40.108;18.302;2023-09-30T00:08:41;19.10;99.90
35563;DHT22;21665;40.108;18.302;2023-09-30T00:11:09;19.10;99.90
35563;DHT22;21665;40.108;18.302;2023-09-30T00:13:36;19.00;99.90
35563;DHT22;21665;40.108;18.302;2023-09-30T00:16:02;19.00;99.90
35563;DHT22;21665;40.108;18.302;2023-09-30T00:18:29;19.00;99.90
35563;DHT22;21665;40.108;18.302;2023-09-30T00:20:56;19.10;99.90
35563;DHT22;21665;40.108;18.302;2023-09-30T00:23:23;19.00;99.90
35563;DHT22;21665;40.108;18.302;2023-09-30T00:25:50;19.10;99.90
35563;DHT22;21665;40.108;18.302;2023-09-30T00:28:17;19.10;99.90
35563;DHT22;21665;40.108;18.302;2023-09-30T00:30:52;19.10;99.90
35563;DHT22;21665;40.108;18.302;2023-09-30T00:33:21;19.10;99.90
35563;DHT22;21665;40.108;18.302;2023-09-30T00:35:47;19.10;99.90
35563;DHT22;21665;40.108;18.302;2023-09-30T00:38:14;19.00;99.90
35563;DHT22;21665;40.108;18.302;2023-09-30T00:40:47;19.00;99.90
35563;DHT22;21665;40.108;18.302;2023-09-30T00:43:23;19.00;99.90
35563;DHT22;21665;40.108;18.302;2023-09-30T00:46:33;18.90;99.90
35563;DHT22;21665;40.108;18.302;2023-09-30T00:49:01;19.00;99.90
35563;DHT22;21665;40.108;18.302;2023-09-30T00:51:29;18.90;99.90
35563;DHT22;21665;40.108;18.302;2023-09-30T00:53:58;18.90;99.90
35563;DHT22;21665;40.108;18.302;2023-09-30T00:56:27;18.90;99.90
35563;DHT22;21665;40.108;18.302;2023-09-30T00:58:54;18.80;99.90
35563;DHT22;21665;40.108;18.302;2023-09-30T01:01:22;18.90;99.90
35563;DHT22;21665;40.108;18.302;2023-09-30T01:03:48;18.80;99.90
35563;DHT22;21665;40.108;18.302;2023-09-30T01:06:15;18.80;99.90
35563;DHT22;21665;40.108;18.302;2023-09-30T01:08:42;18.80;99.90
35563;DHT22;21665;40.108;18.302;2023-09-30T01:11:08;18.80;99.90
35563;DHT22;21665;40.108;18.302;2023-09-30T01:13:37;18.80;99.90
35563;DHT22;21665;40.108;18.302;2023-09-30T01:16:09;18.80;99.90
35563;DHT22;21665;40.108;18.302;2023-09-30T01:18:41;18.80;99.90
35563;DHT22;21665;40.108;18.302;2023-09-30T01:21:09;18.90;99.90
35563;DHT22;21665;40.108;18.302;2023-09-30T01:23:36;18.90;99.90
35563;DHT22;21665;40.108;18.302;2023-09-30T01:26:04;18.90;99.90
35563;DHT22;21665;40.108;18.302;2023-09-30T01:28:32;18.90;99.90
35563;DHT22;21665;40.108;18.302;2023-09-30T01:30:59;18.80;99.90
35563;DHT22;21665;40.108;18.302;2023-09-30T01:33:27;18.90;99.90
35563;DHT22;21665;40.108;18.302;2023-09-30T01:35:54;18.80;99.90
35563;DHT22;21665;40.108;18.302;2023-09-30T01:38:21;18.80;99.90
35563;DHT22;21665;40.108;18.302;2023-09-30T01:40:47;18.80;99.90
35563;DHT22;21665;40.108;18.302;2023-09-30T01:43:14;18.80;99.90
35563;DHT22;21665;40.108;18.302;2023-09-30T01:45:41;18.80;99.90
35563;DHT22;21665;40.108;18.302;2023-09-30T01:48:08;18.80;99.90
35563;DHT22;21665;40.108;18.302;2023-09-30T01:50:38;18.80;99.90
35563;DHT22;21665;40.108;18.302;2023-09-30T01:53:06;18.80;99.90
35563;DHT22;21665;40.108;18.302;2023-09-30T01:55:33;18.80;99.90
35563;DHT22;21665;40.108;18.302;2023-09-30T01:58:00;18.80;99.90
35563;DHT22;21665;40.108;18.302;2023-09-30T02:00:27;18.70;99.90
35563;DHT22;21665;40.108;18.302;2023-09-30T02:02:55;18.70;99.90
35563;DHT22;21665;40.108;18.302;2023-09-30T02:05:25;18.70;99.90
35563;DHT22;21665;40.108;18.302;2023-09-30T02:07:51;18.70;99.90
35563;DHT22;21665;40.108;18.302;2023-09-30T02:10:17;18.60;99.90
35563;DHT22;21665;40.108;18.302;2023-09-30T02:12:47;18.70;99.90
35563;DHT22;21665;40.108;18.302;2023-09-30T02:15:14;18.70;99.90
35563;DHT22;21665;40.108;18.302;2023-09-30T02:17:40;18.60;99.90
35563;DHT22;21665;40.108;18.302;2023-09-30T02:20:12;18.60;99.90
35563;DHT22;21665;40.108;18.302;2023-09-30T02:22:39;18.60;99.90
35563;DHT22;21665;40.108;18.302;2023-09-30T02:25:06;18.60;99.90
35563;DHT22;21665;40.108;18.302;2023-09-30T02:27:34;18.60;99.90
35563;DHT22;21665;40.108;18.302;2023-09-30T02:30:00;18.60;99.90
35563;DHT22;21665;40.108;18.302;2023-09-30T02:32:26;18.60;99.90
35563;DHT22;21665;40.108;18.302;2023-09-30T02:34:53;18.70;99.90
35563;DHT22;21665;40.108;18.302;2023-09-30T02:37:19;18.70;99.90
35563;DHT22;21665;40.108;18.302;2023-09-30T02:39:46;18.70;99.90
35563;DHT22;21665;40.108;18.302;2023-09-30T02:42:12;18.80;99.90
35563;DHT22;21665;40.108;18.302;2023-09-30T02:44:38;18.80;99.90
35563;DHT22;21665;40.108;18.302;2023-09-30T02:47:04;18.80;99.90
35563;DHT22;21665;40.108;18.302;2023-09-30T02:49:33;18.80;99.90
35563;DHT22;21665;40.108;18.302;2023-09-30T02:51:59;18.90;99.90
35563;DHT22;21665;40.108;18.302;2023-09-30T02:54:25;18.90;99.90
35563;DHT22;21665;40.108;18.302;2023-09-30T02:56:52;19.00;99.90
35563;DHT22;21665;40.108;18.302;2023-09-30T02:59:21;19.00;99.90
35563;DHT22;21665;40.108;18.302;2023-09-30T03:01:49;19.00;99.90
35563;DHT22;21665;40.108;18.302;2023-09-30T03:04:16;19.10;99.90
35563;DHT22;21665;40.108;18.302;2023-09-30T03:06:46;19.20;99.90
35563;DHT22;21665;40.108;18.302;2023-09-30T03:09:14;19.30;99.90
35563;DHT22;21665;40.108;18.302;2023-09-30T03:11:41;19.30;99.90
35563;DHT22;21665;40.108;18.302;2023-09-30T03:14:10;19.30;99.90
35563;DHT22;21665;40.108;18.302;2023-09-30T03:16:37;19.30;99.90
35563;DHT22;21665;40.108;18.302;2023-09-30T03:19:06;19.30;99.90
35563;DHT22;21665;40.108;18.302;2023-09-30T03:21:34;19.30;99.90
35563;DHT22;21665;40.108;18.302;2023-09-30T03:24:04;19.30;99.90
35563;DHT22;21665;40.108;18.302;2023-09-30T03:26:31;19.30;99.90
35563;DHT22;21665;40.108;18.302;2023-09-30T03:28:57;19.30;99.90
35563;DHT22;21665;40.108;18.302;2023-09-30T03:31:24;19.30;99.90
35563;DHT22;21665;40.108;18.302;2023-09-30T03:33:51;19.30;99.90
35563;DHT22;21665;40.108;18.302;2023-09-30T03:36:21;19.30;99.90
35563;DHT22;21665;40.108;18.302;2023-09-30T03:38:51;19.30;99.90
35563;DHT22;21665;40.108;18.302;2023-09-30T03:41:20;19.30;99.90
35563;DHT22;21665;40.108;18.302;2023-09-30T03:43:46;19.30;99.90
35563;DHT22;21665;40.108;18.302;2023-09-30T03:46:15;19.30;99.90
35563;DHT22;21665;40.108;18.302;2023-09-30T03:48:42;19.30;99.90
35563;DHT22;21665;40.108;18.302;2023-09-30T03:51:14;19.30;99.90
35563;DHT22;21665;40.108;18.302;2023-09-30T03:53:49;19.30;99.90
35563;DHT22;21665;40.108;18.302;2023-09-30T03:56:16;19.30;99.90
35563;DHT22;21665;40.108;18.302;2023-09-30T03:58:44;19.20;99.90
35563;DHT22;21665;40.108;18.302;2023-09-30T04:01:14;19.20;99.90
35563;DHT22;21665;40.108;18.302;2023-09-30T04:03:42;19.30;99.90
35563;DHT22;21665;40.108;18.302;2023-09-30T04:06:09;19.30;99.90
35563;DHT22;21665;40.108;18.302;2023-09-30T04:08:36;19.20;99.90
35563;DHT22;21665;40.108;18.302;2023-09-30T04:11:03;19.20;99.90
35563;DHT22;21665;40.108;18.302;2023-09-30T04:13:29;19.20;99.90
35563;DHT22;21665;40.108;18.302;2023-09-30T04:15:56;19.20;99.90
35563;DHT22;21665;40.108;18.302;2023-09-30T04:18:24;19.10;99.90
35563;DHT22;21665;40.108;18.302;2023-09-30T04:20:52;19.10;99.90
35563;DHT22;21665;40.108;18.302;2023-09-30T04:23:18;19.10;99.90
35563;DHT22;21665;40.108;18.302;2023-09-30T04:25:48;19.10;99.90
35563;DHT22;21665;40.108;18.302;2023-09-30T04:28:15;19.00;99.90
35563;DHT22;21665;40.108;18.302;2023-09-30T04:30:49;19.00;99.90
35563;DHT22;21665;40.108;18.302;2023-09-30T04:33:17;19.00;99.90
35563;DHT22;21665;40.108;18.302;2023-09-30T04:35:47;19.10;99.90
35563;DHT22;21665;40.108;18.302;2023-09-30T04:38:15;19.10;99.90
35563;DHT22;21665;40.108;18.302;2023-09-30T04:40:41;19.10;99.90
35563;DHT22;21665;40.108;18.302;2023-09-30T04:43:10;19.10;99.90
35563;DHT22;21665;40.108;18.302;2023-09-30T04:45:36;19.20;99.90
35563;DHT22;21665;40.108;18.302;2023-09-30T04:48:03;19.20;99.90
35563;DHT22;21665;40.108;18.302;2023-09-30T04:50:30;19.30;99.90
35563;DHT22;21665;40.108;18.302;2023-09-30T04:52:56;19.30;99.90
35563;DHT22;21665;40.108;18.302;2023-09-30T04:55:24;19.30;99.90
35563;DHT22;21665;40.108;18.302;2023-09-30T04:57:50;19.40;99.90
35563;DHT22;21665;40.108;18.302;2023-09-30T05:00:18;19.40;99.90
35563;DHT22;21665;40.108;18.302;2023-09-30T05:02:45;19.40;99.90
35563;DHT22;21665;40.108;18.302;2023-09-30T05:05:11;19.50;99.90
35563;DHT22;21665;40.108;18.302;2023-09-30T05:07:38;19.50;99.90
35563;DHT22;21665;40.108;18.302;2023-09-30T05:10:04;19.50;99.90
35563;DHT22;21665;40.108;18.302;2023-09-30T05:12:33;19.60;99.90
35563;DHT22;21665;40.108;18.302;2023-09-30T05:14:59;19.60;99.90
35563;DHT22;21665;40.108;18.302;2023-09-30T05:17:26;19.60;99.90
35563;DHT22;21665;40.108;18.302;2023-09-30T05:19:52;19.70;99.90
35563;DHT22;21665;40.108;18.302;2023-09-30T05:22:19;19.80;99.90
35563;DHT22;21665;40.108;18.302;2023-09-30T05:24:53;19.80;99.90
35563;DHT22;21665;40.108;18.302;2023-09-30T05:27:20;19.90;99.90
35563;DHT22;21665;40.108;18.302;2023-09-30T05:29:46;19.90;99.90
35563;DHT22;21665;40.108;18.302;2023-09-30T05:32:12;20.10;99.90
35563;DHT22;21665;40.108;18.302;2023-09-30T05:34:40;20.20;99.90
35563;DHT22;21665;40.108;18.302;2023-09-30T05:37:06;20.30;99.90
35563;DHT22;21665;40.108;18.302;2023-09-30T05:39:32;20.50;99.90
35563;DHT22;21665;40.108;18.302;2023-09-30T05:41:59;20.70;99.90
35563;DHT22;21665;40.108;18.302;2023-09-30T05:44:25;20.70;99.90
35563;DHT22;21665;40.108;18.302;2023-09-30T05:46:54;21.00;99.90
35563;DHT22;21665;40.108;18.302;2023-09-30T05:49:20;21.20;99.90
35563;DHT22;21665;40.108;18.302;2023-09-30T05:51:47;21.50;99.90
35563;DHT22;21665;40.108;18.302;2023-09-30T05:54:13;21.70;99.90
35563;DHT22;21665;40.108;18.302;2023-09-30T05:56:40;22.10;99.90
35563;DHT22;21665;40.108;18.302;2023-09-30T05:59:09;22.60;99.90
35563;DHT22;21665;40.108;18.302;2023-09-30T06:01:36;22.70;99.90
35563;DHT22;21665;40.108;18.302;2023-09-30T06:04:02;22.90;99.90
35563;DHT22;21665;40.108;18.302;2023-09-30T06:06:29;23.20;99.90
35563;DHT22;21665;40.108;18.302;2023-09-30T06:08:59;23.60;99.90
35563;DHT22;21665;40.108;18.302;2023-09-30T06:11:26;23.60;99.90
35563;DHT22;21665;40.108;18.302;2023-09-30T06:13:56;23.90;99.90
35563;DHT22;21665;40.108;18.302;2023-09-30T06:16:30;23.70;99.90
35563;DHT22;21665;40.108;18.302;2023-09-30T06:18:57;23.80;99.90
35563;DHT22;21665;40.108;18.302;2023-09-30T06:21:27;24.00;99.90
35563;DHT22;21665;40.108;18.302;2023-09-30T06:23:55;24.10;99.90
35563;DHT22;21665;40.108;18.302;2023-09-30T06:26:22;24.10;99.90
35563;DHT22;21665;40.108;18.302;2023-09-30T06:28:51;23.90;99.90
35563;DHT22;21665;40.108;18.302;2023-09-30T06:31:20;24.00;99.90
35563;DHT22;21665;40.108;18.302;2023-09-30T06:33:47;24.00;99.90
35563;DHT22;21665;40.108;18.302;2023-09-30T06:36:13;24.00;99.90
35563;DHT22;21665;40.108;18.302;2023-09-30T06:38:40;24.10;99.90
35563;DHT22;21665;40.108;18.302;2023-09-30T06:41:17;24.20;99.90
35563;DHT22;21665;40.108;18.302;2023-09-30T06:43:44;24.30;99.90
35563;DHT22;21665;40.108;18.302;2023-09-30T06:49:11;24.20;99.90
35563;DHT22;21665;40.108;18.302;2023-09-30T06:51:38;24.50;99.90
35563;DHT22;21665;40.108;18.302;2023-09-30T06:54:08;24.70;99.90
35563;DHT22;21665;40.108;18.302;2023-09-30T06:56:35;24.70;99.90
35563;DHT22;21665;40.108;18.302;2023-09-30T06:59:02;24.50;99.90
35563;DHT22;21665;40.108;18.302;2023-09-30T07:01:30;24.20;99.90
35563;DHT22;21665;40.108;18.302;2023-09-30T07:03:58;24.30;99.90
35563;DHT22;21665;40.108;18.302;2023-09-30T07:06:25;24.60;99.90
35563;DHT22;21665;40.108;18.302;2023-09-30T07:08:53;24.70;99.90
35563;DHT22;21665;40.108;18.302;2023-09-30T07:11:30;24.80;99.90
35563;DHT22;21665;40.108;18.302;2023-09-30T07:14:00;25.00;99.90
35563;DHT22;21665;40.108;18.302;2023-09-30T07:16:28;25.10;99.90
35563;DHT22;21665;40.108;18.302;2023-09-30T07:18:57;25.00;99.90
35563;DHT22;21665;40.108;18.302;2023-09-30T07:21:25;25.10;99.90
35563;DHT22;21665;40.108;18.302;2023-09-30T07:23:52;25.20;99.90
35563;DHT22;21665;40.108;18.302;2023-09-30T07:26:24;25.10;99.90
35563;DHT22;21665;40.108;18.302;2023-09-30T07:28:53;24.90;99.90
35563;DHT22;21665;40.108;18.302;2023-09-30T07:31:22;24.90;99.90
35563;DHT22;21665;40.108;18.302;2023-09-30T07:33:49;24.90;99.90
35563;DHT22;21665;40.108;18.302;2023-09-30T07:36:16;25.10;99.90
35563;DHT22;21665;40.108;18.302;2023-09-30T07:38:45;24.60;99.90
35563;DHT22;21665;40.108;18.302;2023-09-30T07:41:13;24.40;99.90
35563;DHT22;21665;40.108;18.302;2023-09-30T07:43:40;24.80;99.90
35563;DHT22;21665;40.108;18.302;2023-09-30T07:46:07;25.00;99.90
35563;DHT22;21665;40.108;18.302;2023-09-30T07:48:36;25.20;99.90
35563;DHT22;21665;40.108;18.302;2023-09-30T07:51:08;25.30;99.90
35563;DHT22;21665;40.108;18.302;2023-09-30T07:53:40;24.90;99.90
35563;DHT22;21665;40.108;18.302;2023-09-30T07:56:08;25.00;99.90
35563;DHT22;21665;40.108;18.302;2023-09-30T07:58:36;25.50;99.90
35563;DHT22;21665;40.108;18.302;2023-09-30T08:01:04;25.60;99.90
35563;DHT22;21665;40.108;18.302;2023-09-30T08:03:30;26.10;99.90
35563;DHT22;21665;40.108;18.302;2023-09-30T08:05:58;26.10;99.90
35563;DHT22;21665;40.108;18.302;2023-09-30T08:08:27;26.00;99.90
35563;DHT22;21665;40.108;18.302;2023-09-30T08:10:58;26.50;99.90
35563;DHT22;21665;40.108;18.302;2023-09-30T08:13:26;26.50;99.90
35563;DHT22;21665;40.108;18.302;2023-09-30T08:15:56;27.10;99.90
35563;DHT22;21665;40.108;18.302;2023-09-30T08:18:24;27.10;99.90
35563;DHT22;21665;40.108;18.302;2023-09-30T08:20:52;26.10;99.90
35563;DHT22;21665;40.108;18.302;2023-09-30T08:23:18;26.00;99.90
35563;DHT22;21665;40.108;18.302;2023-09-30T08:25:45;26.20;99.90
35563;DHT22;21665;40.108;18.302;2023-09-30T08:28:12;26.30;99.90
35563;DHT22;21665;40.108;18.302;2023-09-30T08:30:40;26.10;99.90
35563;DHT22;21665;40.108;18.302;2023-09-30T08:33:06;26.00;99.90
35563;DHT22;21665;40.108;18.302;2023-09-30T08:35:38;25.90;99.90
35563;DHT22;21665;40.108;18.302;2023-09-30T08:38:07;25.90;99.90
35563;DHT22;21665;40.108;18.302;2023-09-30T08:40:37;25.80;99.90
35563;DHT22;21665;40.108;18.302;2023-09-30T08:43:05;26.00;99.90
35563;DHT22;21665;40.108;18.302;2023-09-30T08:45:33;26.00;99.90
35563;DHT22;21665;40.108;18.302;2023-09-30T08:48:06;26.10;99.90
35563;DHT22;21665;40.108;18.302;2023-09-30T08:50:34;26.10;99.90
35563;DHT22;21665;40.108;18.302;2023-09-30T08:53:02;26.40;99.90
35563;DHT22;21665;40.108;18.302;2023-09-30T08:55:32;26.50;99.90
35563;DHT22;21665;40.108;18.302;2023-09-30T08:58:01;26.30;99.90
35563;DHT22;21665;40.108;18.302;2023-09-30T09:00:28;26.40;99.90
35563;DHT22;21665;40.108;18.302;2023-09-30T09:02:55;26.10;99.90
35563;DHT22;21665;40.108;18.302;2023-09-30T09:05:21;26.20;99.90
35563;DHT22;21665;40.108;18.302;2023-09-30T09:07:48;26.50;99.90
35563;DHT22;21665;40.108;18.302;2023-09-30T09:10:17;26.60;99.90
35563;DHT22;21665;40.108;18.302;2023-09-30T09:12:55;26.40;99.90
35563;DHT22;21665;40.108;18.302;2023-09-30T09:15:26;26.20;99.90
35563;DHT22;21665;40.108;18.302;2023-09-30T09:17:55;26.20;99.90
35563;DHT22;21665;40.108;18.302;2023-09-30T09:20:25;26.10;99.90
35563;DHT22;21665;40.108;18.302;2023-09-30T09:22:56;26.20;99.90
35563;DHT22;21665;40.108;18.302;2023-09-30T09:25:27;26.20;99.90
35563;DHT22;21665;40.108;18.302;2023-09-30T09:27:54;26.20;99.90
35563;DHT22;21665;40.108;18.302;2023-09-30T09:30:22;26.10;99.90
35563;DHT22;21665;40.108;18.302;2023-09-30T09:32:59;26.00;99.90
35563;DHT22;21665;40.108;18.302;2023-09-30T09:35:28;26.10;99.90
35563;DHT22;21665;40.108;18.302;2023-09-30T09:38:01;26.30;99.90
35563;DHT22;21665;40.108;18.302;2023-09-30T09:40:29;26.40;99.90
35563;DHT22;21665;40.108;18.302;2023-09-30T09:43:03;26.20;99.90
35563;DHT22;21665;40.108;18.302;2023-09-30T09:45:38;26.50;99.90
35563;DHT22;21665;40.108;18.302;2023-09-30T09:48:09;26.60;99.90
35563;DHT22;21665;40.108;18.302;2023-09-30T09:50:37;26.50;99.90
35563;DHT22;21665;40.108;18.302;2023-09-30T09:53:05;26.50;99.90
35563;DHT22;21665;40.108;18.302;2023-09-30T09:55:33;26.50;99.90
35563;DHT22;21665;40.108;18.302;2023-09-30T09:58:02;26.50;99.90
35563;DHT22;21665;40.108;18.302;2023-09-30T10:00:28;26.50;99.90
35563;DHT22;21665;40.108;18.302;2023-09-30T10:03:06;26.40;99.90
35563;DHT22;21665;40.108;18.302;2023-09-30T10:05:35;26.50;99.90
35563;DHT22;21665;40.108;18.302;2023-09-30T10:08:10;26.80;99.90
35563;DHT22;21665;40.108;18.302;2023-09-30T10:10:38;26.60;99.90
35563;DHT22;21665;40.108;18.302;2023-09-30T10:13:06;26.60;99.90
35563;DHT22;21665;40.108;18.302;2023-09-30T10:15:36;26.60;99.90
35563;DHT22;21665;40.108;18.302;2023-09-30T10:18:10;26.60;99.90
35563;DHT22;21665;40.108;18.302;2023-09-30T10:20:41;26.50;99.90
35563;DHT22;21665;40.108;18.302;2023-09-30T10:25:49;26.60;99.90
35563;DHT22;21665;40.108;18.302;2023-09-30T10:28:38;26.50;99.90
35563;DHT22;21665;40.108;18.302;2023-09-30T10:31:20;26.30;99.90
35563;DHT22;21665;40.108;18.302;2023-09-30T10:36:38;26.50;99.90
35563;DHT22;21665;40.108;18.302;2023-09-30T10:39:11;26.70;99.90
35563;DHT22;21665;40.108;18.302;2023-09-30T10:46:58;26.50;99.90
35563;DHT22;21665;40.108;18.302;2023-09-30T10:51:54;26.50;99.90
35563;DHT22;21665;40.108;18.302;2023-09-30T10:54:25;26.40;99.90
35563;DHT22;21665;40.108;18.302;2023-09-30T10:56:54;26.20;99.90
35563;DHT22;21665;40.108;18.302;2023-09-30T10:59:27;26.30;99.90
35563;DHT22;21665;40.108;18.302;2023-09-30T11:01:56;26.20;99.90
35563;DHT22;21665;40.108;18.302;2023-09-30T11:04:23;26.50;99.90
35563;DHT22;21665;40.108;18.302;2023-09-30T11:06:50;26.50;99.90
35563;DHT22;21665;40.108;18.302;2023-09-30T11:09:21;26.40;99.90
35563;DHT22;21665;40.108;18.302;2023-09-30T11:11:50;26.30;99.90
35563;DHT22;21665;40.108;18.302;2023-09-30T11:14:28;26.30;99.90
35563;DHT22;21665;40.108;18.302;2023-09-30T11:17:00;26.50;99.90
35563;DHT22;21665;40.108;18.302;2023-09-30T11:19:46;26.50;99.90
35563;DHT22;21665;40.108;18.302;2023-09-30T11:22:14;26.50;99.90
35563;DHT22;21665;40.108;18.302;2023-09-30T11:24:41;26.30;99.90
35563;DHT22;21665;40.108;18.302;2023-09-30T11:27:08;26.40;99.90
35563;DHT22;21665;40.108;18.302;2023-09-30T11:29:35;26.50;99.90
35563;DHT22;21665;40.108;18.302;2023-09-30T11:32:02;26.50;99.90
35563;DHT22;21665;40.108;18.302;2023-09-30T11:34:35;26.70;99.90
35563;DHT22;21665;40.108;18.302;2023-09-30T11:37:06;26.60;99.90
35563;DHT22;21665;40.108;18.302;2023-09-30T11:39:34;26.70;99.90
35563;DHT22;21665;40.108;18.302;2023-09-30T11:42:16;26.70;99.90
35563;DHT22;21665;40.108;18.302;2023-09-30T11:44:48;26.60;99.90
35563;DHT22;21665;40.108;18.302;2023-09-30T11:47:17;26.60;99.90
35563;DHT22;21665;40.108;18.302;2023-09-30T11:49:55;26.60;99.90
35563;DHT22;21665;40.108;18.302;2023-09-30T11:52:27;26.40;99.90
35563;DHT22;21665;40.108;18.302;2023-09-30T11:54:57;26.30;99.90
35563;DHT22;21665;40.108;18.302;2023-09-30T11:57:28;26.30;99.90
35563;DHT22;21665;40.108;18.302;2023-09-30T11:59:56;26.50;99.90
35563;DHT22;21665;40.108;18.302;2023-09-30T12:02:24;26.60;99.90
35563;DHT22;21665;40.108;18.302;2023-09-30T12:05:17;26.60;99.90
35563;DHT22;21665;40.108;18.302;2023-09-30T12:07:50;26.40;99.90
35563;DHT22;21665;40.108;18.302;2023-09-30T12:10:17;26.50;99.90
35563;DHT22;21665;40.108;18.302;2023-09-30T12:12:48;26.60;99.90
35563;DHT22;21665;40.108;18.302;2023-09-30T12:15:18;26.60;99.90
35563;DHT22;21665;40.108;18.302;2023-09-30T12:17:47;26.70;99.90
35563;DHT22;21665;40.108;18.302;2023-09-30T12:20:14;26.80;99.90
35563;DHT22;21665;40.108;18.302;2023-09-30T12:22:49;26.70;99.90
35563;DHT22;21665;40.108;18.302;2023-09-30T12:25:23;26.50;99.90
35563;DHT22;21665;40.108;18.302;2023-09-30T12:27:53;26.50;99.90
35563;DHT22;21665;40.108;18.302;2023-09-30T12:30:22;26.50;99.90
35563;DHT22;21665;40.108;18.302;2023-09-30T12:32:57;26.30;99.90
35563;DHT22;21665;40.108;18.302;2023-09-30T12:35:54;26.30;99.90
35563;DHT22;21665;40.108;18.302;2023-09-30T12:38:22;26.50;99.90
35563;DHT22;21665;40.108;18.302;2023-09-30T12:40:50;26.50;99.90
35563;DHT22;21665;40.108;18.302;2023-09-30T12:43:17;26.20;99.90
35563;DHT22;21665;40.108;18.302;2023-09-30T12:45:46;26.30;99.90
35563;DHT22;21665;40.108;18.302;2023-09-30T12:48:15;26.30;99.90
35563;DHT22;21665;40.108;18.302;2023-09-30T12:50:47;26.30;99.90
35563;DHT22;21665;40.108;18.302;2023-09-30T12:53:15;26.20;99.90
35563;DHT22;21665;40.108;18.302;2023-09-30T15:26:30;25.20;99.90
35563;DHT22;21665;40.108;18.302;2023-09-30T15:29:01;25.10;99.90
35563;DHT22;21665;40.108;18.302;2023-09-30T15:31:29;25.20;99.90
35563;DHT22;21665;40.108;18.302;2023-09-30T15:33:57;25.20;99.90
35563;DHT22;21665;40.108;18.302;2023-09-30T15:36:23;25.10;99.90
35563;DHT22;21665;40.108;18.302;2023-09-30T15:38:49;25.10;99.90
35563;DHT22;21665;40.108;18.302;2023-09-30T15:41:22;25.10;99.90
35563;DHT22;21665;40.108;18.302;2023-09-30T15:43:50;25.10;99.90
35563;DHT22;21665;40.108;18.302;2023-09-30T15:46:17;25.00;99.90
35563;DHT22;21665;40.108;18.302;2023-09-30T15:48:44;24.90;99.90
35563;DHT22;21665;40.108;18.302;2023-09-30T15:51:12;24.80;99.90
35563;DHT22;21665;40.108;18.302;2023-09-30T15:53:39;24.70;99.90
35563;DHT22;21665;40.108;18.302;2023-09-30T15:56:06;24.60;99.90
35563;DHT22;21665;40.108;18.302;2023-09-30T15:58:34;24.50;99.90
35563;DHT22;21665;40.108;18.302;2023-09-30T16:01:01;24.50;99.90
35563;DHT22;21665;40.108;18.302;2023-09-30T16:03:29;24.50;99.90
35563;DHT22;21665;40.108;18.302;2023-09-30T16:05:56;24.40;99.90
35563;DHT22;21665;40.108;18.302;2023-09-30T16:08:25;24.40;99.90
35563;DHT22;21665;40.108;18.302;2023-09-30T16:10:53;24.30;99.90
35563;DHT22;21665;40.108;18.302;2023-09-30T16:13:20;24.20;99.90
35563;DHT22;21665;40.108;18.302;2023-09-30T16:15:49;24.10;99.90
35563;DHT22;21665;40.108;18.302;2023-09-30T16:18:17;24.00;99.90
35563;DHT22;21665;40.108;18.302;2023-09-30T16:20:48;23.90;99.90
35563;DHT22;21665;40.108;18.302;2023-09-30T16:23:46;23.80;99.90
35563;DHT22;21665;40.108;18.302;2023-09-30T16:30:22;23.60;99.90
35563;DHT22;21665;40.108;18.302;2023-09-30T16:33:05;23.50;99.90
35563;DHT22;21665;40.108;18.302;2023-09-30T16:35:32;23.50;99.90
35563;DHT22;21665;40.108;18.302;2023-09-30T16:37:58;23.40;99.90
35563;DHT22;21665;40.108;18.302;2023-09-30T16:40:27;23.40;99.90
35563;DHT22;21665;40.108;18.302;2023-09-30T16:42:54;23.40;99.90
35563;DHT22;21665;40.108;18.302;2023-09-30T16:45:20;23.40;99.90
35563;DHT22;21665;40.108;18.302;2023-09-30T16:47:47;23.40;99.90
35563;DHT22;21665;40.108;18.302;2023-09-30T16:50:14;23.40;99.90
35563;DHT22;21665;40.108;18.302;2023-09-30T16:52:42;23.30;99.90
35563;DHT22;21665;40.108;18.302;2023-09-30T16:55:11;23.30;99.90
35563;DHT22;21665;40.108;18.302;2023-09-30T16:57:41;23.20;99.90
35563;DHT22;21665;40.108;18.302;2023-09-30T17:00:08;23.20;99.90
35563;DHT22;21665;40.108;18.302;2023-09-30T17:02:37;23.20;99.90
35563;DHT22;21665;40.108;18.302;2023-09-30T17:05:06;23.10;99.90
35563;DHT22;21665;40.108;18.302;2023-09-30T17:07:34;23.00;99.90
35563;DHT22;21665;40.108;18.302;2023-09-30T17:10:03;23.00;99.90
35563;DHT22;21665;40.108;18.302;2023-09-30T17:12:30;23.00;99.90
35563;DHT22;21665;40.108;18.302;2023-09-30T17:14:57;23.00;99.90
35563;DHT22;21665;40.108;18.302;2023-09-30T17:17:25;23.00;99.90
35563;DHT22;21665;40.108;18.302;2023-09-30T17:19:53;23.00;99.90
35563;DHT22;21665;40.108;18.302;2023-09-30T17:22:19;22.90;99.90
35563;DHT22;21665;40.108;18.302;2023-09-30T17:24:46;22.90;99.90
35563;DHT22;21665;40.108;18.302;2023-09-30T17:27:13;22.80;99.90
35563;DHT22;21665;40.108;18.302;2023-09-30T17:29:39;22.80;99.90
35563;DHT22;21665;40.108;18.302;2023-09-30T17:32:07;22.80;99.90
35563;DHT22;21665;40.108;18.302;2023-09-30T17:34:34;22.70;99.90
35563;DHT22;21665;40.108;18.302;2023-09-30T17:37:04;22.70;99.90
35563;DHT22;21665;40.108;18.302;2023-09-30T17:39:31;22.70;99.90
35563;DHT22;21665;40.108;18.302;2023-09-30T17:41:59;22.70;99.90
35563;DHT22;21665;40.108;18.302;2023-09-30T17:44:26;22.60;99.90
35563;DHT22;21665;40.108;18.302;2023-09-30T17:46:54;22.60;99.90
35563;DHT22;21665;40.108;18.302;2023-09-30T17:49:22;22.50;99.90
35563;DHT22;21665;40.108;18.302;2023-09-30T17:51:48;22.50;99.90
35563;DHT22;21665;40.108;18.302;2023-09-30T17:54:15;22.40;99.90
35563;DHT22;21665;40.108;18.302;2023-09-30T17:56:41;22.40;99.90
35563;DHT22;21665;40.108;18.302;2023-09-30T17:59:08;22.40;99.90
35563;DHT22;21665;40.108;18.302;2023-09-30T18:01:35;22.30;99.90
35563;DHT22;21665;40.108;18.302;2023-09-30T18:04:02;22.30;99.90
35563;DHT22;21665;40.108;18.302;2023-09-30T18:06:33;22.30;99.90
35563;DHT22;21665;40.108;18.302;2023-09-30T18:09:00;22.30;99.90
35563;DHT22;21665;40.108;18.302;2023-09-30T18:11:27;22.20;99.90
35563;DHT22;21665;40.108;18.302;2023-09-30T18:13:54;22.20;99.90
35563;DHT22;21665;40.108;18.302;2023-09-30T18:16:21;22.10;99.90